Time;durP1;ratioP1;P1;durP2;ratioP2;P2;SDS_P1;SDS_P2;PMS_P1;PMS_P2;Temp;Humidity;BMP_temperature;BMP_pressure;BME280_temperature;BME280_humidity;BME280_pressure;Samples;Min_cycle;Max_cycle;Signal;HPM_P1;HPM_P2
2024/03/28 00:00:29;;;;;;;7.10;5.87;;;3.90;99.90;;;;;;5036196;28;20729;-62
2024/03/28 00:02:55;;;;;;;7.77;5.87;;;3.90;99.90;;;;;;5040290;28;20197;-62
2024/03/28 00:05:20;;;;;;;8.50;5.87;;;3.90;99.90;;;;;;5045809;28;20627;-62
2024/03/28 00:07:47;;;;;;;8.70;6.10;;;3.90;99.90;;;;;;5047078;28;20191;-62
2024/03/28 00:10:12;;;;;;;8.37;6.17;;;3.90;99.90;;;;;;5044733;28;20180;-60
2024/03/28 00:12:38;;;;;;;9.10;6.00;;;3.90;99.90;;;;;;5020397;28;20543;-62
2024/03/28 00:15:04;;;;;;;7.53;5.67;;;3.90;99.90;;;;;;5047094;28;20194;-62
2024/03/28 00:17:29;;;;;;;7.73;5.97;;;3.90;99.90;;;;;;5042453;28;20210;-62
2024/03/28 00:19:55;;;;;;;8.70;5.90;;;3.90;99.90;;;;;;5044198;28;20453;-63
2024/03/28 00:22:21;;;;;;;7.70;6.40;;;3.90;99.90;;;;;;5043362;28;20203;-62
2024/03/28 00:24:46;;;;;;;7.43;6.23;;;3.90;99.90;;;;;;5045898;28;20279;-62
2024/03/28 00:27:12;;;;;;;8.03;6.67;;;4.00;99.90;;;;;;5021987;28;20639;-62
2024/03/28 00:29:37;;;;;;;6.67;5.43;;;4.00;99.90;;;;;;5045893;28;20274;-62
2024/03/28 00:32:03;;;;;;;10.73;5.47;;;4.00;99.90;;;;;;5044991;28;20187;-63
2024/03/28 00:34:29;;;;;;;8.30;6.30;;;4.00;99.90;;;;;;5040172;28;20198;-62
2024/03/28 00:36:54;;;;;;;9.70;7.30;;;4.00;99.90;;;;;;5043204;28;20450;-62
2024/03/28 00:39:20;;;;;;;7.40;6.13;;;4.00;99.90;;;;;;5034844;28;20195;-62
2024/03/28 00:41:45;;;;;;;8.77;6.27;;;4.00;99.90;;;;;;5030144;28;20180;-62
2024/03/28 00:44:11;;;;;;;6.37;5.70;;;4.00;99.90;;;;;;5045859;28;20194;-62
2024/03/28 00:46:37;;;;;;;7.20;6.03;;;4.00;99.90;;;;;;5044497;28;20711;-61
2024/03/28 00:49:02;;;;;;;8.27;5.93;;;4.00;99.90;;;;;;5052295;28;20183;-62
2024/03/28 00:51:28;;;;;;;8.60;5.93;;;4.00;99.90;;;;;;5047264;28;20556;-62
2024/03/28 00:53:53;;;;;;;14.67;5.83;;;3.90;99.90;;;;;;5037018;28;20187;-62
2024/03/28 00:56:19;;;;;;;8.37;6.27;;;3.90;99.90;;;;;;5039948;28;20191;-62
2024/03/28 00:58:44;;;;;;;8.73;5.90;;;3.90;99.90;;;;;;5039780;28;20195;-62
2024/03/28 01:01:10;;;;;;;14.53;5.70;;;3.90;99.90;;;;;;5044742;28;20178;-61
2024/03/28 01:03:36;;;;;;;9.53;6.57;;;3.90;99.90;;;;;;5035349;28;20692;-61
2024/03/28 01:06:01;;;;;;;12.87;6.20;;;3.90;99.90;;;;;;5042500;28;20172;-62
2024/03/28 01:08:27;;;;;;;8.97;6.20;;;3.90;99.90;;;;;;5044392;28;20633;-62
2024/03/28 01:10:53;;;;;;;6.83;5.57;;;3.90;99.90;;;;;;5043263;28;20179;-63
2024/03/28 01:13:19;;;;;;;6.90;5.43;;;3.90;99.90;;;;;;5041864;28;20182;-62
2024/03/28 01:15:44;;;;;;;6.20;5.50;;;3.80;99.90;;;;;;5046650;28;20532;-62
2024/03/28 01:18:10;;;;;;;6.90;5.80;;;3.90;99.90;;;;;;5042655;28;20195;-62
2024/03/28 01:20:36;;;;;;;10.13;5.60;;;3.90;99.90;;;;;;5045459;28;20175;-61
2024/03/28 01:23:02;;;;;;;8.00;5.93;;;3.90;99.90;;;;;;5041480;28;20689;-62
2024/03/28 01:25:27;;;;;;;9.40;6.53;;;3.90;99.90;;;;;;5033999;28;20172;-61
2024/03/28 01:27:53;;;;;;;9.40;6.50;;;3.90;99.90;;;;;;5041372;28;20552;-63
2024/03/28 01:30:18;;;;;;;7.60;6.10;;;3.90;99.90;;;;;;5043873;28;20175;-62
2024/03/28 01:32:44;;;;;;;8.47;5.70;;;3.90;99.90;;;;;;5037969;28;20215;-62
2024/03/28 01:35:10;;;;;;;6.07;4.77;;;3.80;99.90;;;;;;5038411;28;20180;-63
2024/03/28 01:37:35;;;;;;;6.20;5.50;;;3.80;99.90;;;;;;5040863;28;20175;-61
2024/03/28 01:40:01;;;;;;;6.63;5.30;;;3.80;99.90;;;;;;5039442;28;20266;-62
2024/03/28 01:42:27;;;;;;;7.83;5.83;;;3.70;99.90;;;;;;5043824;28;20206;-62
2024/03/28 01:44:53;;;;;;;7.07;5.93;;;3.80;99.90;;;;;;5022604;28;20255;-62
2024/03/28 01:47:21;;;;;;;11.13;6.27;;;3.80;99.90;;;;;;5023114;28;20662;-62
2024/03/28 01:49:47;;;;;;;7.63;6.03;;;3.80;99.90;;;;;;5040226;28;20436;-62
2024/03/28 01:52:14;;;;;;;8.63;6.17;;;3.80;99.90;;;;;;5037919;28;20425;-62
2024/03/28 01:54:41;;;;;;;10.07;6.23;;;3.80;99.90;;;;;;5036174;28;20482;-62
2024/03/28 01:57:08;;;;;;;7.80;6.10;;;3.80;99.90;;;;;;5043317;28;20426;-62
2024/03/28 01:59:34;;;;;;;8.60;6.17;;;3.70;99.90;;;;;;5040374;28;21080;-61
2024/03/28 02:02:04;;;;;;;7.60;5.73;;;3.70;99.90;;;;;;5023309;28;20432;-63
2024/03/28 02:04:30;;;;;;;8.00;6.40;;;3.70;99.90;;;;;;5026060;28;20418;-62
2024/03/28 02:06:55;;;;;;;8.93;6.20;;;3.70;99.90;;;;;;5035506;28;20436;-61
2024/03/28 02:09:25;;;;;;;7.93;6.30;;;3.70;99.90;;;;;;5039334;28;20274;-62
2024/03/28 02:11:54;;;;;;;6.97;6.20;;;3.70;99.90;;;;;;5038438;28;20167;-62
2024/03/28 02:14:20;;;;;;;9.83;6.53;;;3.60;99.90;;;;;;5043254;28;21280;-61
2024/03/28 02:16:45;;;;;;;8.00;6.07;;;3.70;99.90;;;;;;5019552;28;20446;-62
2024/03/28 02:19:11;;;;;;;9.93;6.40;;;3.60;99.90;;;;;;5040280;28;20191;-63
2024/03/28 02:21:37;;;;;;;8.30;6.77;;;3.60;99.90;;;;;;5043779;28;20571;-62
2024/03/28 02:24:03;;;;;;;8.07;6.13;;;3.60;99.90;;;;;;5028570;28;20205;-62
2024/03/28 02:26:28;;;;;;;12.53;6.37;;;3.60;99.90;;;;;;5043261;28;20175;-61
2024/03/28 02:28:54;;;;;;;10.20;6.33;;;3.50;99.90;;;;;;5040569;28;20203;-63
2024/03/28 02:31:19;;;;;;;10.57;6.63;;;3.50;99.90;;;;;;5040532;28;20251;-62
2024/03/28 02:33:45;;;;;;;7.30;6.00;;;3.40;99.90;;;;;;5051365;28;20176;-63
2024/03/28 02:36:11;;;;;;;8.30;6.20;;;3.40;99.90;;;;;;5046582;28;20197;-63
2024/03/28 02:38:37;;;;;;;7.83;5.90;;;3.40;99.90;;;;;;5042341;28;20445;-62
2024/03/28 02:41:03;;;;;;;7.63;5.93;;;3.40;99.90;;;;;;5044316;28;20176;-61
2024/03/28 02:43:29;;;;;;;6.73;5.77;;;3.30;99.90;;;;;;5043604;28;20942;-62
2024/03/28 02:45:55;;;;;;;9.23;6.37;;;3.30;99.90;;;;;;5042824;28;20516;-61
2024/03/28 02:48:21;;;;;;;8.30;5.93;;;3.30;99.90;;;;;;5038675;28;20572;-62
2024/03/28 02:50:46;;;;;;;6.90;5.90;;;3.20;99.90;;;;;;5042186;28;20178;-62
2024/03/28 02:53:12;;;;;;;8.27;6.40;;;3.20;99.90;;;;;;5042697;28;20178;-61
2024/03/28 02:55:38;;;;;;;9.30;6.73;;;3.20;99.90;;;;;;5042140;28;20194;-62
2024/03/28 02:58:04;;;;;;;9.43;6.57;;;3.20;99.90;;;;;;5048827;28;20213;-62
2024/03/28 03:00:30;;;;;;;13.70;6.63;;;3.10;99.90;;;;;;5043701;28;20429;-62
2024/03/28 03:02:55;;;;;;;9.67;6.53;;;3.10;99.90;;;;;;5045644;28;20456;-63
2024/03/28 03:05:21;;;;;;;10.23;7.07;;;3.10;99.90;;;;;;5044093;28;20184;-62
2024/03/28 03:07:47;;;;;;;8.80;6.40;;;3.00;99.90;;;;;;5048609;28;20286;-62
2024/03/28 03:10:13;;;;;;;9.77;6.90;;;3.00;99.90;;;;;;5046381;28;20236;-63
2024/03/28 03:12:39;;;;;;;9.30;6.50;;;3.00;99.90;;;;;;5027098;28;20418;-61
2024/03/28 03:15:05;;;;;;;8.93;6.50;;;3.00;99.90;;;;;;5044659;28;20437;-62
2024/03/28 03:17:31;;;;;;;8.60;6.60;;;3.00;99.90;;;;;;5043777;28;20185;-62
2024/03/28 03:19:58;;;;;;;11.17;8.70;;;3.00;99.90;;;;;;5051207;28;20923;-63
2024/03/28 03:22:24;;;;;;;8.80;6.70;;;2.90;99.90;;;;;;5039867;28;20270;-62
2024/03/28 03:24:56;;;;;;;9.87;6.90;;;2.90;99.90;;;;;;5044029;28;20620;-62
2024/03/28 03:27:21;;;;;;;10.10;7.17;;;2.90;99.90;;;;;;5043222;28;20536;-63
2024/03/28 03:35:15;;;;;;;8.97;6.90;;;2.80;99.90;;;;;;5040008;28;20436;-60
2024/03/28 03:37:41;;;;;;;9.80;6.57;;;2.70;99.90;;;;;;5043770;28;20520;-61
2024/03/28 03:40:09;;;;;;;10.53;7.70;;;2.70;99.90;;;;;;5031681;28;20190;-61
2024/03/28 03:42:35;;;;;;;10.30;6.87;;;2.70;99.90;;;;;;5047967;28;20198;-61
2024/03/28 03:45:02;;;;;;;10.20;7.07;;;2.60;99.90;;;;;;5046492;28;20485;-61
2024/03/28 03:47:27;;;;;;;10.07;6.20;;;2.60;99.90;;;;;;5044040;28;20429;-60
2024/03/28 03:49:54;;;;;;;12.33;6.87;;;2.60;99.90;;;;;;5044641;28;20449;-61
2024/03/28 03:52:19;;;;;;;8.30;6.10;;;2.60;99.90;;;;;;5046752;28;20234;-60
2024/03/28 03:54:45;;;;;;;9.17;6.70;;;2.50;99.90;;;;;;5019937;28;20545;-60
2024/03/28 03:57:11;;;;;;;10.70;6.60;;;2.50;99.90;;;;;;5042938;28;20257;-60
2024/03/28 03:59:38;;;;;;;10.20;6.80;;;2.50;99.90;;;;;;5043455;28;21125;-59
2024/03/28 04:02:04;;;;;;;10.57;7.00;;;2.40;99.90;;;;;;5041879;28;20465;-61
2024/03/28 04:04:30;;;;;;;9.47;7.17;;;2.40;99.90;;;;;;5041850;28;20927;-61
2024/03/28 04:06:57;;;;;;;14.33;8.60;;;2.40;99.90;;;;;;5042667;28;20433;-60
2024/03/28 04:09:23;;;;;;;11.17;6.37;;;2.40;99.90;;;;;;5028821;28;20881;-59
2024/03/28 04:11:49;;;;;;;10.10;6.27;;;2.30;99.90;;;;;;5047241;28;20457;-60
2024/03/28 04:14:15;;;;;;;9.23;7.13;;;2.30;99.90;;;;;;5043923;28;20300;-61
2024/03/28 04:16:41;;;;;;;13.00;7.57;;;2.30;99.90;;;;;;5041638;28;20868;-62
2024/03/28 04:19:07;;;;;;;9.57;7.10;;;2.30;99.90;;;;;;5037650;28;20698;-60
2024/03/28 04:21:34;;;;;;;10.90;7.40;;;2.30;99.90;;;;;;5042432;28;20216;-61
2024/03/28 04:24:01;;;;;;;10.60;7.70;;;2.20;99.90;;;;;;5046805;28;20459;-60
2024/03/28 04:26:27;;;;;;;14.97;8.10;;;2.20;99.90;;;;;;5039784;28;20927;-61
2024/03/28 04:28:52;;;;;;;12.40;7.90;;;2.20;99.90;;;;;;5043666;28;20425;-61
2024/03/28 04:31:18;;;;;;;10.00;7.17;;;2.20;99.90;;;;;;5040015;28;20204;-62
2024/03/28 04:33:44;;;;;;;11.70;8.03;;;2.20;99.90;;;;;;5046055;28;20692;-60
2024/03/28 04:36:10;;;;;;;14.13;8.57;;;2.10;99.90;;;;;;5042834;28;20198;-61
2024/03/28 04:38:35;;;;;;;11.03;7.27;;;2.10;99.90;;;;;;5043756;28;20194;-61
2024/03/28 04:41:04;;;;;;;10.93;7.33;;;2.10;99.90;;;;;;5047387;28;20531;-61
2024/03/28 04:43:30;;;;;;;13.33;8.43;;;2.20;99.90;;;;;;5051856;28;20448;-61
2024/03/28 04:45:56;;;;;;;11.60;8.17;;;2.20;99.90;;;;;;5045812;28;20411;-61
2024/03/28 04:48:22;;;;;;;12.27;8.30;;;2.20;99.90;;;;;;5039666;28;20574;-61
2024/03/28 04:50:47;;;;;;;14.43;9.07;;;2.20;99.90;;;;;;5046195;28;20171;-61
2024/03/28 04:53:13;;;;;;;19.30;9.83;;;2.20;99.90;;;;;;5040529;28;20436;-62
2024/03/28 04:55:39;;;;;;;12.47;8.17;;;2.20;99.90;;;;;;5046771;28;20278;-62
2024/03/28 04:58:05;;;;;;;12.20;8.00;;;2.20;99.90;;;;;;5040173;28;20210;-60
2024/03/28 05:00:31;;;;;;;15.53;8.87;;;2.30;99.90;;;;;;5042944;28;20451;-60
2024/03/28 05:02:56;;;;;;;23.47;8.63;;;2.30;99.90;;;;;;5039307;28;20302;-58
2024/03/28 05:05:22;;;;;;;19.90;9.23;;;2.30;99.90;;;;;;5039257;28;20178;-56
2024/03/28 05:07:48;;;;;;;13.93;9.70;;;2.30;99.90;;;;;;5039978;28;20735;-62
2024/03/28 05:10:13;;;;;;;15.63;9.03;;;2.30;99.90;;;;;;5027858;28;20211;-64
2024/03/28 05:12:39;;;;;;;16.60;9.50;;;2.30;99.90;;;;;;5042489;28;20332;-62
2024/03/28 05:15:06;;;;;;;21.37;10.80;;;2.30;99.90;;;;;;5046244;28;20318;-59
2024/03/28 05:17:31;;;;;;;18.30;10.17;;;2.30;99.90;;;;;;5042459;28;20183;-63
2024/03/28 05:19:57;;;;;;;26.57;10.97;;;2.30;99.90;;;;;;5041182;28;20762;-59
2024/03/28 05:22:24;;;;;;;21.83;9.77;;;2.30;99.90;;;;;;5039663;28;20199;-61
2024/03/28 05:24:49;;;;;;;17.40;10.47;;;2.30;99.90;;;;;;5038922;28;20167;-58
2024/03/28 05:27:15;;;;;;;19.80;10.90;;;2.40;99.90;;;;;;5039241;28;20882;-61
2024/03/28 05:29:41;;;;;;;16.93;9.03;;;2.40;99.90;;;;;;5035832;28;20194;-62
2024/03/28 05:32:09;;;;;;;17.03;9.80;;;2.50;99.90;;;;;;5038887;28;20293;-60
2024/03/28 05:34:35;;;;;;;20.30;10.13;;;2.50;99.90;;;;;;5006436;28;20432;-60
2024/03/28 05:37:01;;;;;;;20.23;9.77;;;2.50;99.90;;;;;;5039081;28;20436;-60
2024/03/28 05:39:27;;;;;;;23.90;11.33;;;2.50;99.90;;;;;;5039331;28;20207;-61
2024/03/28 05:41:53;;;;;;;18.70;10.07;;;2.50;99.90;;;;;;5030786;28;20264;-61
2024/03/28 05:44:19;;;;;;;29.50;11.40;;;2.60;99.90;;;;;;5021005;28;20875;-60
2024/03/28 05:46:44;;;;;;;27.70;12.63;;;2.60;99.90;;;;;;5032327;28;20172;-60
2024/03/28 05:49:10;;;;;;;35.00;14.77;;;2.70;99.90;;;;;;5038319;28;20191;-61
2024/03/28 05:51:35;;;;;;;29.10;13.90;;;2.70;99.90;;;;;;5028686;28;20685;-61
2024/03/28 05:54:01;;;;;;;44.77;16.67;;;2.70;99.90;;;;;;5041223;28;20207;-61
2024/03/28 05:56:27;;;;;;;34.20;14.40;;;2.70;99.90;;;;;;5044329;28;20207;-61
2024/03/28 05:58:52;;;;;;;54.67;18.10;;;2.70;99.90;;;;;;5046230;28;20195;-60
2024/03/28 06:01:18;;;;;;;44.00;15.50;;;2.70;99.90;;;;;;5045095;28;20178;-60
2024/03/28 06:03:44;;;;;;;48.93;16.07;;;2.70;99.90;;;;;;5043549;28;20214;-61
2024/03/28 06:06:09;;;;;;;42.20;16.17;;;2.80;99.90;;;;;;5053533;28;20181;-61
2024/03/28 06:08:36;;;;;;;32.40;14.73;;;2.80;99.90;;;;;;5042696;28;20205;-61
2024/03/28 06:11:05;;;;;;;34.40;13.87;;;2.90;99.90;;;;;;5044798;28;20248;-61
2024/03/28 06:13:31;;;;;;;34.23;14.60;;;2.90;99.90;;;;;;5027961;28;20918;-60
2024/03/28 06:15:58;;;;;;;34.63;14.80;;;2.90;99.90;;;;;;5041500;28;20496;-61
2024/03/28 06:18:24;;;;;;;28.60;12.70;;;2.90;99.90;;;;;;5046678;28;20449;-62
2024/03/28 06:21:05;;;;;;;21.70;10.33;;;2.90;99.90;;;;;;5041765;28;20441;-63
2024/03/28 06:23:32;;;;;;;22.70;10.60;;;2.90;99.90;;;;;;5044858;28;20866;-63
2024/03/28 06:26:01;;;;;;;17.57;10.77;;;2.90;99.90;;;;;;5046827;28;20963;-59
2024/03/28 06:28:27;;;;;;;14.07;9.07;;;2.80;99.90;;;;;;5047525;28;20425;-61
2024/03/28 06:30:56;;;;;;;18.50;10.03;;;2.80;99.90;;;;;;5041881;28;20422;-60
2024/03/28 06:33:22;;;;;;;17.20;10.00;;;2.80;99.90;;;;;;5043449;28;20464;-61
2024/03/28 06:35:48;;;;;;;21.30;10.40;;;2.80;99.90;;;;;;5045449;28;20490;-61
2024/03/28 06:38:13;;;;;;;15.57;9.60;;;2.80;99.90;;;;;;5030324;28;20449;-62
2024/03/28 06:40:39;;;;;;;17.17;10.37;;;2.80;99.90;;;;;;5045969;28;20439;-60
2024/03/28 06:43:05;;;;;;;18.00;9.97;;;2.80;99.90;;;;;;5044870;28;20203;-61
2024/03/28 06:45:31;;;;;;;19.10;10.43;;;2.90;99.90;;;;;;5049400;28;20439;-57
2024/03/28 06:47:57;;;;;;;17.27;9.23;;;2.90;99.90;;;;;;5028064;28;20229;-57
2024/03/28 06:50:22;;;;;;;21.30;12.50;;;3.00;99.90;;;;;;5044981;28;20174;-60
2024/03/28 06:52:51;;;;;;;21.10;11.97;;;3.00;99.90;;;;;;5046825;28;20557;-61
2024/03/28 06:55:17;;;;;;;19.80;11.30;;;3.10;99.90;;;;;;5048851;28;20202;-60
2024/03/28 06:57:42;;;;;;;22.33;11.63;;;3.10;99.90;;;;;;5028123;28;20523;-60
2024/03/28 07:00:09;;;;;;;16.80;9.90;;;3.10;99.90;;;;;;5044596;28;20590;-61
2024/03/28 07:02:35;;;;;;;20.43;11.37;;;3.20;99.90;;;;;;5040773;28;20198;-62
2024/03/28 07:05:00;;;;;;;17.43;10.40;;;3.20;99.90;;;;;;5044446;28;20554;-61
2024/03/28 07:07:26;;;;;;;18.13;10.93;;;3.20;99.90;;;;;;5045899;28;20416;-60
2024/03/28 07:09:52;;;;;;;16.63;9.47;;;3.20;99.90;;;;;;5047694;28;20258;-61
2024/03/28 07:12:17;;;;;;;16.00;9.60;;;3.20;99.90;;;;;;5046603;28;20178;-60
2024/03/28 07:14:43;;;;;;;16.77;9.70;;;3.20;99.90;;;;;;5030094;28;20262;-61
2024/03/28 07:17:08;;;;;;;20.00;11.00;;;3.20;99.90;;;;;;5044788;28;20187;-60
2024/03/28 07:19:34;;;;;;;20.70;11.40;;;3.30;99.90;;;;;;5043374;28;20261;-60
2024/03/28 07:22:00;;;;;;;18.40;10.70;;;3.30;99.90;;;;;;5047038;28;20176;-60
2024/03/28 07:24:26;;;;;;;25.53;12.47;;;3.40;99.90;;;;;;5024245;28;20913;-60
2024/03/28 07:26:51;;;;;;;20.27;11.30;;;3.50;99.90;;;;;;5042958;28;20183;-61
2024/03/28 07:29:17;;;;;;;25.43;12.80;;;3.60;99.90;;;;;;5031119;28;20191;-61
2024/03/28 07:31:42;;;;;;;23.00;11.97;;;3.60;99.90;;;;;;5048598;28;20202;-60
2024/03/28 07:34:08;;;;;;;18.97;11.97;;;3.70;99.90;;;;;;5046113;28;20204;-60
2024/03/28 07:36:33;;;;;;;29.60;13.07;;;3.80;99.90;;;;;;5030105;28;20179;-61
2024/03/28 07:38:59;;;;;;;29.13;11.93;;;3.90;99.90;;;;;;5049890;28;20211;-62
2024/03/28 07:41:25;;;;;;;22.10;10.20;;;3.90;99.90;;;;;;5040904;28;20629;-59
2024/03/28 07:43:50;;;;;;;22.40;11.37;;;4.00;99.90;;;;;;5045418;28;20203;-59
2024/03/28 07:46:16;;;;;;;29.13;13.20;;;4.00;99.90;;;;;;5043965;28;20199;-60
2024/03/28 07:48:42;;;;;;;20.87;10.50;;;4.00;99.90;;;;;;5050426;28;20281;-61
2024/03/28 07:51:07;;;;;;;23.67;11.30;;;4.00;99.90;;;;;;5048546;28;20171;-61
2024/03/28 07:53:33;;;;;;;26.20;12.33;;;4.00;99.90;;;;;;5046060;28;20175;-61
2024/03/28 07:56:12;;;;;;;22.87;10.83;;;4.00;99.90;;;;;;5029819;28;20268;-60
2024/03/28 07:58:37;;;;;;;15.83;8.70;;;4.00;99.90;;;;;;5035822;28;20223;-60
2024/03/28 08:01:07;;;;;;;26.03;9.07;;;4.10;99.90;;;;;;5046804;28;20952;-61
2024/03/28 08:03:34;;;;;;;7.80;5.60;;;4.10;99.90;;;;;;5026286;28;20196;-60
2024/03/28 08:06:10;;;;;;;6.60;4.83;;;4.20;99.90;;;;;;5044715;28;20414;-62
2024/03/28 08:08:36;;;;;;;5.50;4.30;;;4.20;99.90;;;;;;5048876;28;20486;-62
2024/03/28 08:11:02;;;;;;;5.53;4.30;;;4.30;99.90;;;;;;5042530;28;20526;-61
2024/03/28 08:13:28;;;;;;;6.53;4.60;;;4.30;99.90;;;;;;5040801;28;20322;-61
2024/03/28 08:15:54;;;;;;;4.93;3.27;;;4.40;99.90;;;;;;5053907;28;20414;-61
2024/03/28 08:18:20;;;;;;;6.40;3.53;;;4.40;99.90;;;;;;5030013;28;20195;-61
2024/03/28 08:20:45;;;;;;;4.53;3.50;;;4.40;99.90;;;;;;5045919;28;20870;-60
2024/03/28 08:23:12;;;;;;;4.50;3.50;;;4.50;99.90;;;;;;5029286;28;20199;-61
2024/03/28 08:25:38;;;;;;;4.40;2.93;;;4.50;99.90;;;;;;5043809;28;20514;-60
2024/03/28 08:28:07;;;;;;;3.80;2.80;;;4.50;99.90;;;;;;5049122;28;20523;-61
2024/03/28 08:30:33;;;;;;;3.30;2.97;;;4.50;99.90;;;;;;5045377;28;20459;-62
2024/03/28 08:32:59;;;;;;;3.20;2.47;;;4.50;99.90;;;;;;5040496;28;20555;-61
2024/03/28 08:35:25;;;;;;;2.20;2.00;;;4.50;99.90;;;;;;5044057;28;20512;-61
2024/03/28 08:37:52;;;;;;;2.47;2.27;;;4.50;99.90;;;;;;5040865;28;21070;-61
2024/03/28 08:40:18;;;;;;;1.93;1.80;;;4.50;99.90;;;;;;5047395;28;20166;-61
2024/03/28 08:42:43;;;;;;;2.57;2.37;;;4.50;99.90;;;;;;5035845;28;20461;-61
2024/03/28 08:45:11;;;;;;;2.27;1.90;;;4.50;99.90;;;;;;5047035;28;20201;-62
2024/03/28 08:47:37;;;;;;;2.03;1.50;;;4.50;99.90;;;;;;5028514;28;20681;-61
2024/03/28 08:50:04;;;;;;;1.90;1.80;;;4.50;99.90;;;;;;5042635;28;20504;-60
2024/03/28 08:52:30;;;;;;;2.10;1.80;;;4.50;99.90;;;;;;5043127;28;20430;-61
2024/03/28 08:54:56;;;;;;;2.47;1.87;;;4.60;99.90;;;;;;5049737;28;20919;-61
2024/03/28 08:57:23;;;;;;;2.70;2.40;;;4.60;99.90;;;;;;5047561;28;20435;-62
2024/03/28 08:59:50;;;;;;;1.80;1.70;;;4.60;99.90;;;;;;5043248;28;20191;-61
2024/03/28 09:02:20;;;;;;;1.60;1.50;;;4.70;99.90;;;;;;5046340;28;20431;-62
2024/03/28 09:04:46;;;;;;;1.90;1.70;;;4.70;99.90;;;;;;5039017;28;20407;-63
2024/03/28 09:07:14;;;;;;;2.80;1.57;;;4.80;99.90;;;;;;5023798;28;20426;-61
2024/03/28 09:09:39;;;;;;;2.83;1.83;;;4.80;99.90;;;;;;5040704;28;20421;-61
2024/03/28 09:12:05;;;;;;;2.00;1.80;;;4.80;99.90;;;;;;5042403;28;20432;-61
2024/03/28 09:14:30;;;;;;;2.77;2.20;;;4.90;99.90;;;;;;5045584;28;20738;-63
2024/03/28 09:16:57;;;;;;;1.80;1.70;;;4.90;99.90;;;;;;5044589;28;20183;-62
2024/03/28 09:19:22;;;;;;;1.93;1.80;;;4.90;99.90;;;;;;5033400;28;20882;-62
2024/03/28 09:21:48;;;;;;;1.70;1.60;;;4.90;99.90;;;;;;5035238;28;20433;-63
2024/03/28 09:24:13;;;;;;;4.10;1.63;;;4.90;99.90;;;;;;5022260;28;20222;-61
2024/03/28 09:26:39;;;;;;;1.70;1.60;;;5.00;99.90;;;;;;5040660;28;20221;-61
2024/03/28 09:29:05;;;;;;;1.77;1.50;;;5.00;99.90;;;;;;5036431;28;20223;-62
2024/03/28 09:31:32;;;;;;;1.57;1.47;;;5.00;99.90;;;;;;5040642;28;20639;-63
2024/03/28 09:33:57;;;;;;;1.30;1.20;;;5.10;99.90;;;;;;5043148;28;20209;-61
2024/03/28 09:36:23;;;;;;;5.87;2.00;;;5.10;99.90;;;;;;5014023;28;20435;-61
2024/03/28 09:38:50;;;;;;;2.33;1.40;;;5.20;99.90;;;;;;5036384;28;20552;-62
2024/03/28 09:41:30;;;;;;;2.97;2.20;;;5.30;99.90;;;;;;5040205;28;20187;-62
2024/03/28 09:44:10;;;;;;;3.20;1.70;;;5.40;99.90;;;;;;5049195;28;20469;-61
2024/03/28 09:46:41;;;;;;;1.60;1.50;;;5.40;99.90;;;;;;5025618;28;20409;-63
2024/03/28 09:49:08;;;;;;;1.73;1.50;;;5.50;99.90;;;;;;5036904;28;20481;-61
2024/03/28 09:51:37;;;;;;;1.60;1.50;;;5.60;99.90;;;;;;5024428;28;20490;-61
2024/03/28 09:54:05;;;;;;;2.80;2.10;;;5.60;99.90;;;;;;5052201;28;20408;-63
2024/03/28 09:56:31;;;;;;;1.70;1.60;;;5.60;99.90;;;;;;5045079;28;20437;-62
2024/03/28 09:58:57;;;;;;;1.67;1.57;;;5.70;99.90;;;;;;5037274;28;20453;-61
2024/03/28 10:01:23;;;;;;;1.60;1.50;;;5.80;99.90;;;;;;5047852;28;20414;-61
2024/03/28 10:04:19;;;;;;;2.40;1.67;;;5.80;99.90;;;;;;5045394;28;20758;-62
2024/03/28 10:06:48;;;;;;;1.77;1.67;;;5.80;99.90;;;;;;5027837;28;20453;-61
2024/03/28 10:09:20;;;;;;;3.23;1.70;;;5.90;99.90;;;;;;5037851;28;20437;-62
2024/03/28 10:11:45;;;;;;;2.13;1.87;;;5.90;99.90;;;;;;5047400;28;20417;-63
2024/03/28 10:14:12;;;;;;;2.13;1.93;;;5.90;99.90;;;;;;5040202;28;20457;-61
2024/03/28 10:16:38;;;;;;;2.53;2.00;;;5.90;99.90;;;;;;5036775;28;20202;-63
2024/03/28 10:19:05;;;;;;;5.87;2.30;;;5.80;99.90;;;;;;5041367;28;20441;-62
2024/03/28 10:21:31;;;;;;;2.20;1.97;;;5.90;99.90;;;;;;5036804;28;20179;-61
2024/03/28 10:23:56;;;;;;;2.10;1.90;;;5.90;99.90;;;;;;5028677;28;21055;-62
2024/03/28 10:26:22;;;;;;;2.40;2.20;;;5.90;99.90;;;;;;5043408;28;20171;-62
2024/03/28 10:28:48;;;;;;;2.40;2.20;;;5.90;99.90;;;;;;5044862;28;20191;-61
2024/03/28 10:31:22;;;;;;;3.27;2.60;;;5.90;99.90;;;;;;5044250;28;20654;-62
2024/03/28 10:33:49;;;;;;;3.80;2.20;;;5.90;99.90;;;;;;5046661;28;20175;-62
2024/03/28 10:36:24;;;;;;;3.80;2.93;;;6.00;99.90;;;;;;5035427;28;20986;-62
2024/03/28 10:39:02;;;;;;;3.43;2.80;;;6.00;99.90;;;;;;5041222;28;20595;-61
2024/03/28 10:41:29;;;;;;;5.67;3.20;;;6.10;99.90;;;;;;5046108;28;20552;-61
2024/03/28 10:43:59;;;;;;;3.23;2.80;;;6.10;99.90;;;;;;5044459;28;20970;-62
2024/03/28 10:46:26;;;;;;;4.00;2.87;;;6.10;99.90;;;;;;5044788;28;20413;-62
2024/03/28 10:48:54;;;;;;;6.50;2.90;;;6.10;99.90;;;;;;5024137;28;20454;-62
2024/03/28 10:51:36;;;;;;;3.10;2.80;;;6.20;99.90;;;;;;5047825;28;20431;-61
2024/03/28 10:54:05;;;;;;;3.63;2.73;;;6.20;99.30;;;;;;5047514;28;20467;-62
2024/03/28 10:56:31;;;;;;;5.97;2.83;;;6.20;98.90;;;;;;5046459;28;20441;-62
2024/03/28 10:59:00;;;;;;;4.23;3.40;;;6.20;99.90;;;;;;5036781;28;20965;-63
2024/03/28 11:01:30;;;;;;;4.60;2.90;;;6.30;99.90;;;;;;5047413;28;21046;-62
2024/03/28 11:03:59;;;;;;;7.33;3.57;;;6.40;99.90;;;;;;5044607;28;20473;-63
2024/03/28 11:06:25;;;;;;;4.87;3.33;;;6.50;99.90;;;;;;5047080;28;20414;-62
2024/03/28 11:08:59;;;;;;;3.30;3.00;;;6.50;99.90;;;;;;5047075;28;20485;-62
2024/03/28 11:11:25;;;;;;;6.13;3.43;;;6.50;99.90;;;;;;5051015;28;20420;-62
2024/03/28 11:13:52;;;;;;;4.10;3.37;;;6.50;99.90;;;;;;5036211;28;20945;-62
2024/03/28 11:16:21;;;;;;;6.00;4.03;;;6.50;99.90;;;;;;5029083;28;20437;-62
2024/03/28 11:18:48;;;;;;;5.80;3.60;;;6.50;99.90;;;;;;5049947;28;20964;-62
2024/03/28 11:21:24;;;;;;;3.50;3.20;;;6.60;99.90;;;;;;5046218;28;20434;-63
2024/03/28 11:23:50;;;;;;;6.27;3.90;;;6.60;99.00;;;;;;5039799;28;20990;-63
2024/03/28 11:26:20;;;;;;;4.60;4.00;;;6.60;99.40;;;;;;5045974;28;20406;-63
2024/03/28 11:28:46;;;;;;;4.27;3.57;;;6.50;99.90;;;;;;5042285;28;20437;-62
2024/03/28 11:31:13;;;;;;;4.00;3.50;;;6.60;99.90;;;;;;5044315;28;20414;-63
2024/03/28 11:33:42;;;;;;;4.90;3.77;;;6.80;99.90;;;;;;5045707;28;20176;-62
2024/03/28 11:36:08;;;;;;;4.03;3.63;;;7.00;99.20;;;;;;5048252;28;20512;-56
2024/03/28 11:38:36;;;;;;;3.50;3.20;;;7.00;94.60;;;;;;5043486;28;20453;-63
2024/03/28 11:41:03;;;;;;;3.80;3.13;;;7.10;94.50;;;;;;5044400;28;20495;-62
2024/03/28 11:43:31;;;;;;;5.70;3.63;;;7.30;92.70;;;;;;5032882;28;20460;-63
2024/03/28 11:46:01;;;;;;;7.80;3.50;;;7.40;91.60;;;;;;5046541;28;20433;-63
2024/03/28 11:48:33;;;;;;;5.10;3.77;;;7.40;92.20;;;;;;5045957;28;20437;-62
2024/03/28 11:51:03;;;;;;;4.13;3.70;;;7.40;91.30;;;;;;5022645;28;20450;-62
2024/03/28 11:53:29;;;;;;;4.60;3.60;;;7.40;91.50;;;;;;5044112;28;20426;-63
2024/03/28 11:55:54;;;;;;;3.97;3.57;;;7.50;91.70;;;;;;5044619;28;20416;-62
2024/03/28 11:58:25;;;;;;;4.50;3.90;;;7.60;91.40;;;;;;5050047;28;20448;-62
2024/03/28 12:00:57;;;;;;;4.83;4.10;;;7.70;90.60;;;;;;5046217;28;20190;-63
2024/03/28 12:03:23;;;;;;;5.10;4.10;;;7.80;90.30;;;;;;5047662;28;20457;-63
2024/03/28 12:05:50;;;;;;;4.80;3.83;;;7.90;90.00;;;;;;5049617;28;20416;-63
2024/03/28 12:08:20;;;;;;;5.80;3.40;;;7.90;90.20;;;;;;5049721;28;20191;-62
2024/03/28 12:10:45;;;;;;;3.90;3.47;;;7.90;86.40;;;;;;5042142;28;20429;-62
2024/03/28 12:13:11;;;;;;;6.17;3.90;;;7.80;86.00;;;;;;5042296;28;20795;-63
2024/03/28 12:15:39;;;;;;;6.50;4.20;;;7.60;89.10;;;;;;5042862;28;20538;-62
2024/03/28 12:18:05;;;;;;;3.90;3.03;;;7.60;90.20;;;;;;5045179;28;20203;-63
2024/03/28 12:20:32;;;;;;;4.70;3.80;;;7.60;84.10;;;;;;5050572;28;20480;-63
2024/03/28 12:23:03;;;;;;;3.23;2.93;;;7.50;87.80;;;;;;5034332;28;20207;-63
2024/03/28 12:25:32;;;;;;;4.30;3.90;;;7.70;87.00;;;;;;5039734;28;20421;-61
2024/03/28 12:28:00;;;;;;;2.90;2.60;;;7.90;81.50;;;;;;5050998;28;20437;-62
2024/03/28 12:30:27;;;;;;;3.00;2.43;;;8.40;78.30;;;;;;5038792;28;20497;-62
2024/03/28 12:33:03;;;;;;;5.03;2.60;;;8.80;75.20;;;;;;5041961;28;20423;-62
2024/03/28 12:35:33;;;;;;;4.90;2.40;;;9.10;72.50;;;;;;5038131;28;20528;-62
2024/03/28 12:38:00;;;;;;;2.83;2.53;;;9.50;71.30;;;;;;5038753;28;20505;-63
2024/03/28 12:40:27;;;;;;;4.07;2.67;;;9.80;67.80;;;;;;5046360;28;20452;-63
2024/03/28 12:42:54;;;;;;;2.80;1.80;;;10.00;65.70;;;;;;5022798;28;20485;-63
2024/03/28 12:45:21;;;;;;;2.30;2.10;;;10.40;64.60;;;;;;5036737;28;20425;-62
2024/03/28 12:47:48;;;;;;;3.63;1.70;;;10.60;60.00;;;;;;5044551;28;20425;-63
2024/03/28 12:50:16;;;;;;;1.93;1.83;;;10.60;59.10;;;;;;5039196;28;20433;-66
2024/03/28 12:52:49;;;;;;;1.60;1.50;;;10.80;60.20;;;;;;5042926;28;20461;-62